Time;durP1;ratioP1;P1;durP2;ratioP2;P2;SDS_P1;SDS_P2;PMS_P1;PMS_P2;Temp;Humidity;BMP_temperature;BMP_pressure;BME280_temperature;BME280_humidity;BME280_pressure;Samples;Min_cycle;Max_cycle;Signal;HPM_P1;HPM_P2
2023/01/19 00:00:14;;;;;;;14.50;10.75;;;3.50;99.90;;;;;;2107573;28;20019;-71
2023/01/19 00:01:15;;;;;;;12.88;11.43;;;3.40;99.90;;;;;;2108047;28;20071;-71
2023/01/19 00:02:15;;;;;;;13.88;11.55;;;3.50;99.90;;;;;;2108067;28;20028;-71
2023/01/19 00:03:16;;;;;;;12.45;10.82;;;3.50;99.90;;;;;;2108590;28;20031;-71
2023/01/19 00:04:17;;;;;;;14.55;10.77;;;3.50;99.90;;;;;;2110130;28;20028;-71
2023/01/19 00:05:17;;;;;;;15.23;11.23;;;3.50;99.90;;;;;;2109665;28;20031;-70
2023/01/19 00:06:19;;;;;;;12.30;11.00;;;3.50;99.90;;;;;;2110230;28;20106;-71
2023/01/19 00:07:19;;;;;;;13.35;10.50;;;3.50;99.90;;;;;;2109742;28;20508;-71
2023/01/19 00:08:20;;;;;;;14.98;11.32;;;3.50;99.90;;;;;;2107653;28;21394;-71
2023/01/19 00:09:21;;;;;;;14.38;10.95;;;3.50;99.90;;;;;;2107832;28;20035;-71
2023/01/19 00:10:22;;;;;;;14.55;11.48;;;3.50;99.90;;;;;;2107792;28;20018;-71
2023/01/19 00:11:22;;;;;;;18.42;11.02;;;3.50;99.90;;;;;;2108769;28;20038;-71
2023/01/19 00:12:24;;;;;;;16.48;11.55;;;3.50;99.90;;;;;;2110488;28;20039;-71
2023/01/19 00:13:25;;;;;;;12.77;10.20;;;3.50;99.90;;;;;;2108070;28;21235;-71
2023/01/19 00:14:25;;;;;;;15.75;12.80;;;3.60;99.90;;;;;;2106519;28;20739;-71
2023/01/19 00:15:26;;;;;;;12.73;11.23;;;3.50;99.90;;;;;;2106281;28;20024;-71
2023/01/19 00:16:26;;;;;;;14.90;11.30;;;3.50;99.90;;;;;;2107121;28;20023;-71
2023/01/19 00:17:27;;;;;;;13.98;11.77;;;3.60;99.90;;;;;;2109714;28;20099;-71
2023/01/19 00:18:27;;;;;;;14.27;11.57;;;3.50;99.90;;;;;;2108745;28;20935;-71
2023/01/19 00:19:28;;;;;;;12.38;10.95;;;3.50;99.90;;;;;;2107240;28;20377;-70
2023/01/19 00:20:31;;;;;;;15.05;10.93;;;3.50;99.90;;;;;;2109327;28;20521;-71
2023/01/19 00:21:32;;;;;;;15.30;12.00;;;3.50;99.90;;;;;;2108891;28;20471;-70
2023/01/19 00:22:32;;;;;;;14.45;12.30;;;3.50;99.90;;;;;;2109462;28;20020;-71
2023/01/19 00:23:33;;;;;;;13.70;11.80;;;3.50;99.90;;;;;;2107225;28;20023;-70
2023/01/19 00:24:33;;;;;;;13.30;11.73;;;3.50;99.90;;;;;;2109057;28;20103;-71
2023/01/19 00:25:41;;;;;;;13.52;11.45;;;3.50;99.90;;;;;;2110729;28;20016;-71
2023/01/19 00:26:41;;;;;;;14.00;11.60;;;3.50;99.90;;;;;;2108638;28;20019;-71
2023/01/19 00:27:48;;;;;;;14.35;12.07;;;3.50;99.90;;;;;;2107707;28;20049;-71
2023/01/19 00:28:49;;;;;;;15.07;11.80;;;3.50;99.90;;;;;;2110088;28;20035;-71
2023/01/19 00:29:49;;;;;;;12.45;11.15;;;3.50;99.90;;;;;;2108818;28;20488;-71
2023/01/19 00:30:50;;;;;;;15.52;12.65;;;3.50;99.90;;;;;;2109625;28;20115;-70
2023/01/19 00:31:51;;;;;;;13.45;11.85;;;3.50;99.90;;;;;;2110926;28;20038;-71
2023/01/19 00:32:51;;;;;;;13.23;11.13;;;3.50;99.90;;;;;;2111897;28;20043;-71
2023/01/19 00:33:52;;;;;;;14.55;11.63;;;3.50;99.90;;;;;;2109835;28;20482;-71
2023/01/19 00:34:53;;;;;;;15.60;11.90;;;3.50;99.90;;;;;;2110829;28;20020;-71
2023/01/19 00:35:56;;;;;;;15.02;12.52;;;3.50;99.90;;;;;;2109170;28;20023;-71
2023/01/19 00:36:56;;;;;;;13.68;11.90;;;3.50;99.90;;;;;;2111824;28;20069;-71
2023/01/19 00:37:57;;;;;;;13.70;11.82;;;3.50;99.90;;;;;;2111627;27;20023;-71
2023/01/19 00:38:58;;;;;;;13.18;11.45;;;3.50;99.90;;;;;;2111361;28;20031;-70
2023/01/19 00:39:58;;;;;;;14.60;12.38;;;3.50;99.90;;;;;;2108461;28;20028;-71
2023/01/19 00:40:59;;;;;;;14.40;11.55;;;3.60;99.90;;;;;;2109557;28;20020;-71
2023/01/19 00:43:19;;;;;;;14.25;12.27;;;3.60;99.90;;;;;;2109170;28;20023;-71
2023/01/19 00:44:19;;;;;;;13.93;12.38;;;3.50;99.90;;;;;;2110559;28;20475;-71
2023/01/19 00:45:22;;;;;;;16.65;12.20;;;3.60;99.90;;;;;;2108458;28;20024;-71
2023/01/19 00:46:25;;;;;;;14.70;12.00;;;3.60;99.90;;;;;;2108092;28;20028;-71
2023/01/19 00:47:27;;;;;;;14.85;12.02;;;3.50;99.90;;;;;;2109980;28;20069;-71
2023/01/19 00:48:28;;;;;;;14.23;11.13;;;3.60;99.90;;;;;;2110179;27;20024;-70
2023/01/19 00:49:28;;;;;;;15.00;11.82;;;3.60;99.90;;;;;;2110976;28;20045;-70
2023/01/19 00:50:31;;;;;;;13.82;11.52;;;3.60;99.90;;;;;;2108883;28;20475;-71
2023/01/19 00:51:31;;;;;;;12.75;11.20;;;3.60;99.90;;;;;;2110988;28;20047;-71
2023/01/19 00:52:32;;;;;;;15.48;11.75;;;3.60;99.90;;;;;;2110673;28;20055;-71
2023/01/19 00:53:32;;;;;;;15.25;11.65;;;3.60;99.90;;;;;;2108806;28;20028;-71
2023/01/19 00:54:33;;;;;;;14.10;11.00;;;3.60;99.90;;;;;;2110007;28;20052;-71
2023/01/19 00:55:34;;;;;;;12.75;11.55;;;3.60;99.90;;;;;;2109396;28;20704;-71
2023/01/19 00:56:35;;;;;;;15.23;12.32;;;3.60;99.90;;;;;;2108978;28;20016;-71
2023/01/19 00:57:37;;;;;;;15.23;13.07;;;3.70;99.90;;;;;;2110224;28;20023;-71
2023/01/19 00:58:37;;;;;;;14.38;12.23;;;3.70;99.90;;;;;;2108975;28;20542;-71
2023/01/19 00:59:38;;;;;;;13.27;11.88;;;3.70;99.90;;;;;;2109218;28;20126;-71
2023/01/19 01:00:38;;;;;;;14.40;12.40;;;3.70;99.90;;;;;;2109561;28;20032;-71
2023/01/19 01:01:39;;;;;;;14.40;11.70;;;3.70;99.90;;;;;;2110927;28;20043;-71
2023/01/19 01:02:41;;;;;;;13.70;12.15;;;3.70;99.90;;;;;;2111482;28;20495;-71
2023/01/19 01:03:41;;;;;;;14.60;12.43;;;3.70;99.90;;;;;;2112311;28;20082;-71
2023/01/19 01:04:42;;;;;;;15.90;11.73;;;3.70;99.90;;;;;;2108428;28;20027;-71
2023/01/19 01:05:42;;;;;;;14.07;11.85;;;3.70;99.90;;;;;;2112050;28;20575;-71
2023/01/19 01:06:43;;;;;;;14.50;11.68;;;3.70;99.90;;;;;;2112950;28;20676;-71
2023/01/19 01:07:44;;;;;;;14.40;11.48;;;3.70;99.90;;;;;;2110945;28;20031;-71
2023/01/19 01:08:44;;;;;;;14.98;11.98;;;3.70;99.90;;;;;;2108311;28;20111;-71
2023/01/19 01:09:45;;;;;;;13.68;11.75;;;3.70;99.90;;;;;;2107802;28;20110;-71
2023/01/19 01:10:45;;;;;;;14.30;11.75;;;3.70;99.90;;;;;;2108520;28;20023;-71
2023/01/19 01:11:46;;;;;;;17.38;11.52;;;3.80;99.90;;;;;;2108459;28;20035;-71
2023/01/19 01:12:47;;;;;;;12.45;11.15;;;3.80;99.90;;;;;;2111109;28;20475;-71
2023/01/19 01:13:47;;;;;;;13.98;10.95;;;3.80;99.90;;;;;;2111552;28;20025;-71
2023/01/19 01:14:48;;;;;;;12.20;10.90;;;3.80;99.90;;;;;;2111836;28;20488;-71
2023/01/19 01:15:51;;;;;;;12.95;11.63;;;3.80;99.90;;;;;;2111427;28;20072;-71
2023/01/19 01:16:51;;;;;;;17.33;11.43;;;3.80;99.90;;;;;;2108960;28;20706;-71
2023/01/19 01:17:52;;;;;;;13.27;11.90;;;3.80;99.90;;;;;;2111299;28;20406;-71
2023/01/19 01:18:52;;;;;;;13.75;10.80;;;3.80;99.90;;;;;;2108713;28;20069;-71
2023/01/19 01:19:53;;;;;;;13.32;11.70;;;3.80;99.90;;;;;;2109607;28;20080;-71
2023/01/19 01:21:03;;;;;;;14.23;11.18;;;3.80;99.90;;;;;;2109694;28;20024;-71
2023/01/19 01:22:04;;;;;;;;;;;3.80;99.90;;;;;;2112275;28;21091;-71
2023/01/19 01:23:05;;;;;;;14.55;10.82;;;3.80;99.90;;;;;;2109531;28;20320;-71
2023/01/19 01:24:06;;;;;;;12.85;11.48;;;3.80;99.90;;;;;;2110882;28;20030;-70
2023/01/19 01:25:06;;;;;;;15.60;11.95;;;3.80;99.90;;;;;;2108465;28;20111;-71
2023/01/19 01:26:07;;;;;;;18.15;12.13;;;3.80;99.90;;;;;;2109429;27;20027;-71
2023/01/19 01:27:07;;;;;;;12.73;11.43;;;3.80;99.90;;;;;;2108250;28;20054;-72
2023/01/19 01:28:09;;;;;;;12.43;11.02;;;3.80;99.90;;;;;;2109556;28;20031;-70
2023/01/19 01:29:09;;;;;;;15.65;11.48;;;3.80;99.90;;;;;;2109492;28;20024;-71
2023/01/19 01:30:12;;;;;;;14.93;12.30;;;3.80;99.90;;;;;;2107647;28;20035;-71
2023/01/19 01:31:12;;;;;;;15.55;12.00;;;3.90;99.90;;;;;;2108265;28;20123;-71
2023/01/19 01:32:14;;;;;;;13.07;11.52;;;3.90;99.90;;;;;;2110020;28;20023;-71
2023/01/19 01:33:15;;;;;;;13.32;11.48;;;3.90;99.90;;;;;;2109694;28;20024;-71
2023/01/19 01:34:16;;;;;;;13.25;10.88;;;3.90;99.90;;;;;;2117477;27;20019;-71
2023/01/19 01:35:16;;;;;;;14.77;11.77;;;3.90;99.90;;;;;;2118522;27;20083;-71
2023/01/19 01:36:20;;;;;;;15.00;11.40;;;3.90;99.90;;;;;;2108145;28;20100;-71
2023/01/19 01:37:20;;;;;;;12.48;11.27;;;3.90;99.90;;;;;;2106464;28;20517;-71
2023/01/19 01:38:21;;;;;;;14.15;11.32;;;3.90;99.90;;;;;;2110799;28;20391;-71
2023/01/19 01:39:21;;;;;;;13.35;10.73;;;3.90;99.90;;;;;;2110118;28;20019;-71
2023/01/19 01:40:22;;;;;;;14.50;11.10;;;3.90;99.90;;;;;;2109125;28;20129;-71
2023/01/19 01:41:23;;;;;;;14.77;11.90;;;3.90;99.90;;;;;;2107800;28;20516;-71
2023/01/19 01:42:28;;;;;;;13.07;11.35;;;3.90;99.90;;;;;;2109046;28;20130;-71
2023/01/19 01:43:44;;;;;;;15.52;11.55;;;3.90;99.90;;;;;;2107466;28;20023;-71
2023/01/19 01:44:56;;;;;;;14.25;11.35;;;3.90;99.90;;;;;;2109603;28;20767;-71
2023/01/19 01:45:57;;;;;;;18.92;11.82;;;3.90;99.90;;;;;;2107648;28;20045;-71
2023/01/19 01:46:58;;;;;;;13.35;12.00;;;3.90;99.90;;;;;;2108192;28;20125;-71
2023/01/19 01:48:16;;;;;;;16.60;11.85;;;3.90;99.90;;;;;;2108380;28;20152;-71
2023/01/19 01:49:17;;;;;;;13.02;11.60;;;3.90;99.90;;;;;;2106730;28;20078;-71
2023/01/19 01:51:22;;;;;;;15.75;12.32;;;3.90;99.90;;;;;;2103410;28;20024;-71
2023/01/19 01:52:07;;;;;;;13.48;11.57;;;3.90;99.90;;;;;;2109850;28;20030;-71
2023/01/19 01:53:13;;;;;;;14.02;11.32;;;3.90;99.90;;;;;;2109317;28;20062;-72
2023/01/19 01:54:20;;;;;;;14.75;12.52;;;3.90;99.90;;;;;;2109213;28;20024;-71
2023/01/19 01:55:23;;;;;;;16.70;11.32;;;3.90;99.90;;;;;;2110080;28;20016;-71
2023/01/19 01:56:31;;;;;;;19.00;12.85;;;3.90;99.90;;;;;;2108381;28;20052;-71
2023/01/19 01:57:40;;;;;;;15.07;11.85;;;3.90;99.90;;;;;;2110083;28;20024;-71
2023/01/19 01:58:41;;;;;;;13.02;11.55;;;3.90;99.90;;;;;;2109404;28;20032;-71
2023/01/19 01:59:46;;;;;;;12.65;11.35;;;3.90;99.90;;;;;;2107371;28;20039;-70
2023/01/19 02:03:31;;;;;;;14.70;11.05;;;3.90;99.90;;;;;;2109240;27;20020;-70
2023/01/19 02:04:32;;;;;;;21.10;11.30;;;3.90;99.90;;;;;;2109565;28;20047;-71
2023/01/19 02:05:33;;;;;;;16.13;12.90;;;3.90;99.90;;;;;;2109111;28;20023;-71
2023/01/19 02:13:53;;;;;;;13.07;11.15;;;3.90;99.90;;;;;;2109033;28;20027;-71
2023/01/19 02:14:54;;;;;;;13.50;11.23;;;3.90;99.90;;;;;;2110420;28;20036;-71
2023/01/19 02:16:01;;;;;;;14.30;11.30;;;3.90;99.90;;;;;;2108156;28;20471;-71
2023/01/19 02:17:02;;;;;;;14.27;11.25;;;3.90;99.90;;;;;;2108564;28;20038;-71
2023/01/19 02:18:03;;;;;;;13.95;11.45;;;3.90;99.90;;;;;;2108933;28;20482;-71
2023/01/19 02:19:05;;;;;;;13.30;11.23;;;3.90;99.90;;;;;;2107994;28;20023;-71
2023/01/19 02:20:09;;;;;;;13.13;11.45;;;4.00;99.90;;;;;;2110165;28;20032;-71
2023/01/19 02:21:50;;;;;;;16.27;11.88;;;4.00;99.90;;;;;;2109850;28;20023;-71
2023/01/19 02:22:51;;;;;;;14.60;11.65;;;3.90;99.90;;;;;;2107961;28;20024;-71
2023/01/19 02:23:54;;;;;;;13.98;11.45;;;3.90;99.90;;;;;;2109632;28;20023;-71
2023/01/19 02:24:55;;;;;;;13.02;11.23;;;4.00;99.90;;;;;;2109100;28;20028;-71
2023/01/19 02:25:57;;;;;;;12.80;11.43;;;4.00;99.90;;;;;;2108491;28;20036;-71
2023/01/19 02:26:59;;;;;;;18.80;11.63;;;3.90;99.90;;;;;;2108631;28;20017;-71
2023/01/19 02:28:00;;;;;;;13.02;11.60;;;3.90;99.90;;;;;;2108491;28;20110;-71
2023/01/19 02:29:07;;;;;;;16.58;11.20;;;4.00;99.90;;;;;;2109579;28;20027;-71
2023/01/19 02:30:09;;;;;;;12.95;11.35;;;4.00;99.90;;;;;;2108015;28;20656;-71
2023/01/19 02:31:10;;;;;;;13.02;11.65;;;3.90;99.90;;;;;;2107516;28;20113;-71
2023/01/19 02:32:11;;;;;;;14.23;11.57;;;4.00;99.90;;;;;;2107678;28;20422;-71
2023/01/19 02:33:12;;;;;;;13.15;11.13;;;4.00;99.90;;;;;;2109597;28;20118;-71
2023/01/19 02:34:15;;;;;;;15.82;12.35;;;4.00;99.90;;;;;;2108532;28;20095;-71
2023/01/19 02:35:16;;;;;;;14.45;11.52;;;4.00;99.90;;;;;;2110554;28;20027;-71
2023/01/19 02:36:21;;;;;;;13.13;10.95;;;4.00;99.90;;;;;;2107812;28;20020;-71
2023/01/19 02:37:23;;;;;;;15.43;11.48;;;4.00;99.90;;;;;;2109157;28;20020;-71
2023/01/19 02:38:26;;;;;;;14.75;11.55;;;4.10;99.90;;;;;;2108729;28;20024;-71
2023/01/19 02:39:39;;;;;;;12.93;11.57;;;4.00;99.90;;;;;;2106851;28;20023;-71
2023/01/19 02:40:42;;;;;;;12.95;11.60;;;4.00;99.90;;;;;;2108405;28;20023;-71
2023/01/19 02:41:46;;;;;;;15.68;10.80;;;4.00;99.90;;;;;;2108305;28;20031;-71
2023/01/19 02:42:55;;;;;;;14.02;11.25;;;4.00;99.90;;;;;;2108919;28;20024;-71
2023/01/19 02:43:57;;;;;;;13.23;11.57;;;4.00;99.90;;;;;;2108797;28;20036;-71
2023/01/19 02:44:58;;;;;;;12.75;10.93;;;4.00;99.90;;;;;;2108547;28;20045;-71
2023/01/19 02:45:59;;;;;;;15.68;12.05;;;4.10;99.90;;;;;;2109406;28;20463;-71
2023/01/19 02:46:59;;;;;;;15.48;12.38;;;4.00;99.90;;;;;;2110987;28;20097;-71
2023/01/19 02:48:00;;;;;;;13.73;11.23;;;4.00;99.90;;;;;;2109379;28;20143;-71
2023/01/19 02:49:01;;;;;;;16.13;11.13;;;4.10;99.90;;;;;;2108813;28;20032;-71
2023/01/19 02:50:02;;;;;;;15.88;11.15;;;4.10;99.90;;;;;;2109248;28;20094;-71
2023/01/19 02:51:21;;;;;;;17.02;11.20;;;4.00;99.90;;;;;;2106555;28;20032;-71
2023/01/19 02:52:23;;;;;;;15.60;11.25;;;4.10;99.90;;;;;;2108127;28;20277;-71
2023/01/19 02:53:46;;;;;;;13.63;10.50;;;4.00;99.90;;;;;;2107218;28;20026;-71
2023/01/19 02:55:18;;;;;;;17.38;10.55;;;4.00;99.90;;;;;;2108995;28;20480;-71
2023/01/19 02:57:10;;;;;;;15.68;11.40;;;4.00;99.90;;;;;;2107394;28;20108;-71
2023/01/19 02:58:39;;;;;;;13.88;11.02;;;4.00;99.90;;;;;;2092131;28;20040;-71
2023/01/19 02:59:51;;;;;;;14.60;10.88;;;4.00;99.90;;;;;;2109462;28;20135;-71
2023/01/19 03:01:07;;;;;;;15.48;11.70;;;4.00;99.90;;;;;;2107479;28;20060;-71
2023/01/19 03:02:15;;;;;;;15.07;10.80;;;3.90;99.90;;;;;;2108810;28;20023;-71
2023/01/19 03:03:45;;;;;;;13.23;10.88;;;4.00;99.90;;;;;;2109781;28;20404;-71
2023/01/19 03:05:13;;;;;;;12.10;10.68;;;3.90;99.90;;;;;;2109835;28;20035;-71
2023/01/19 03:06:40;;;;;;;12.77;10.85;;;3.90;99.90;;;;;;2107502;28;20027;-71
2023/01/19 03:07:55;;;;;;;13.68;10.80;;;3.90;99.90;;;;;;2107380;28;20098;-71
2023/01/19 03:09:03;;;;;;;13.18;11.75;;;3.90;99.90;;;;;;2108368;28;20028;-71
2023/01/19 03:10:10;;;;;;;14.90;11.30;;;3.90;99.90;;;;;;2107862;28;20024;-71
2023/01/19 03:11:12;;;;;;;17.83;10.90;;;3.90;99.90;;;;;;2107723;28;20023;-71
2023/01/19 03:12:37;;;;;;;14.52;11.13;;;3.90;99.90;;;;;;2109045;28;20011;-71
2023/01/19 03:13:58;;;;;;;13.20;11.02;;;3.90;99.90;;;;;;2107223;28;20016;-72
2023/01/19 03:15:06;;;;;;;15.10;10.63;;;3.90;99.90;;;;;;2109027;28;20439;-71
2023/01/19 03:16:28;;;;;;;17.17;11.20;;;3.90;99.90;;;;;;2108482;28;20024;-71
2023/01/19 03:17:31;;;;;;;13.95;11.18;;;3.90;99.90;;;;;;2107528;28;20031;-71
2023/01/19 03:18:34;;;;;;;14.05;10.80;;;4.00;99.90;;;;;;2107051;28;20661;-71
2023/01/19 03:19:39;;;;;;;13.00;10.30;;;3.90;99.90;;;;;;2108001;27;20534;-71
2023/01/19 03:20:42;;;;;;;13.63;10.88;;;4.00;99.90;;;;;;2108506;28;20550;-71
2023/01/19 03:21:46;;;;;;;16.83;11.32;;;3.90;99.90;;;;;;2108996;28;20027;-71
2023/01/19 03:22:49;;;;;;;14.25;11.20;;;4.00;99.90;;;;;;2108209;28;20026;-71
2023/01/19 03:23:52;;;;;;;14.77;10.30;;;3.90;99.90;;;;;;2107160;28;20547;-71
2023/01/19 03:24:57;;;;;;;14.65;11.43;;;3.90;99.90;;;;;;2106652;28;20042;-71
2023/01/19 03:25:59;;;;;;;12.18;10.32;;;4.00;99.90;;;;;;2107313;28;20020;-71
2023/01/19 03:27:07;;;;;;;15.48;10.98;;;3.90;99.90;;;;;;2108102;28;20139;-71
2023/01/19 03:28:08;;;;;;;13.77;10.57;;;4.00;99.90;;;;;;2109549;28;20111;-71
2023/01/19 03:29:13;;;;;;;14.38;10.02;;;3.90;99.90;;;;;;2110877;28;20360;-71
2023/01/19 03:30:18;;;;;;;14.05;10.65;;;3.90;99.90;;;;;;2108489;28;20039;-71
2023/01/19 03:31:24;;;;;;;12.95;10.55;;;4.00;99.90;;;;;;2108833;28;20052;-71
2023/01/19 03:32:32;;;;;;;14.35;10.27;;;4.00;99.90;;;;;;2107675;28;20576;-71
2023/01/19 03:33:37;;;;;;;14.05;10.40;;;3.90;99.90;;;;;;2109951;28;20537;-71
2023/01/19 03:34:41;;;;;;;13.65;10.88;;;4.00;99.90;;;;;;2109401;28;20118;-71
2023/01/19 03:35:47;;;;;;;15.40;10.80;;;4.00;99.90;;;;;;2107727;28;20024;-71
2023/01/19 03:36:52;;;;;;;14.70;10.15;;;4.00;99.90;;;;;;2108342;28;20059;-71
2023/01/19 03:37:56;;;;;;;12.43;10.02;;;4.00;99.90;;;;;;2109232;28;20035;-71
2023/01/19 03:39:00;;;;;;;13.00;10.50;;;4.00;99.90;;;;;;2107998;28;20065;-71
2023/01/19 03:40:00;;;;;;;14.10;10.75;;;4.00;99.90;;;;;;2106034;28;20031;-71
2023/01/19 03:41:05;;;;;;;14.13;10.32;;;4.00;99.90;;;;;;2109343;28;20750;-71
2023/01/19 03:42:10;;;;;;;12.48;10.45;;;4.00;99.90;;;;;;2107474;28;20088;-71
2023/01/19 03:43:14;;;;;;;17.30;11.38;;;4.00;99.90;;;;;;2109919;28;20467;-71
2023/01/19 03:44:15;;;;;;;15.43;11.43;;;4.00;99.90;;;;;;2108698;28;20690;-71
2023/01/19 03:45:17;;;;;;;12.68;10.80;;;4.00;99.90;;;;;;2109692;28;20031;-71
2023/01/19 03:46:19;;;;;;;11.70;10.05;;;4.00;99.90;;;;;;2109444;28;20015;-71
2023/01/19 03:47:20;;;;;;;13.30;9.88;;;4.00;99.90;;;;;;2108179;28;20049;-71
2023/01/19 03:48:22;;;;;;;13.38;9.98;;;4.00;99.90;;;;;;2107749;28;20023;-71
2023/01/19 03:49:23;;;;;;;15.27;10.25;;;4.00;99.90;;;;;;2107755;28;20034;-71
2023/01/19 03:50:27;;;;;;;14.27;10.23;;;4.00;99.90;;;;;;2108667;28;20028;-71
2023/01/19 03:51:28;;;;;;;14.07;9.55;;;4.10;99.90;;;;;;2107129;28;20438;-71
2023/01/19 03:52:31;;;;;;;11.65;9.55;;;4.00;99.90;;;;;;2109045;28;20019;-71
2023/01/19 03:53:32;;;;;;;12.32;10.18;;;4.00;99.90;;;;;;2106799;28;20027;-71
2023/01/19 03:54:32;;;;;;;15.60;10.55;;;4.00;99.90;;;;;;2110681;28;20035;-71
2023/01/19 03:55:35;;;;;;;13.48;10.23;;;4.00;99.90;;;;;;2110788;28;20020;-71
2023/01/19 03:56:36;;;;;;;12.65;10.40;;;4.10;99.90;;;;;;2106290;28;20494;-71
2023/01/19 03:57:36;;;;;;;12.13;9.77;;;4.10;99.90;;;;;;2107682;28;20016;-71
2023/01/19 03:58:37;;;;;;;16.80;10.52;;;4.00;99.90;;;;;;2108160;28;20084;-71
2023/01/19 03:59:37;;;;;;;12.02;10.27;;;4.10;99.90;;;;;;2108301;28;20030;-71
2023/01/19 04:00:38;;;;;;;13.82;9.85;;;4.10;99.90;;;;;;2110861;28;20051;-71
2023/01/19 04:01:39;;;;;;;12.52;10.90;;;4.10;99.90;;;;;;2109686;28;20028;-71
2023/01/19 04:02:39;;;;;;;11.82;9.50;;;4.10;99.90;;;;;;2108738;28;20487;-71
2023/01/19 04:03:41;;;;;;;13.25;10.32;;;4.10;99.90;;;;;;2110652;28;20454;-71
2023/01/19 04:04:41;;;;;;;12.15;10.18;;;4.10;99.90;;;;;;2108018;28;20019;-71
2023/01/19 04:05:43;;;;;;;15.82;10.65;;;4.10;99.90;;;;;;2107695;28;20127;-71
2023/01/19 04:06:43;;;;;;;15.40;10.05;;;4.10;99.90;;;;;;2108419;28;20382;-71
2023/01/19 04:07:46;;;;;;;11.38;10.02;;;4.10;99.90;;;;;;2109166;28;20065;-71
2023/01/19 04:08:48;;;;;;;14.15;10.60;;;4.10;99.90;;;;;;2109618;28;20487;-71
2023/01/19 04:09:49;;;;;;;17.60;10.48;;;4.10;99.90;;;;;;2108695;28;20395;-71
2023/01/19 04:10:49;;;;;;;15.43;10.50;;;4.10;99.90;;;;;;2108377;28;20027;-71
2023/01/19 04:11:50;;;;;;;13.00;9.75;;;4.10;99.90;;;;;;2108977;28;20024;-71
2023/01/19 04:12:56;;;;;;;14.07;10.43;;;4.10;99.90;;;;;;2106941;28;20024;-71
2023/01/19 04:13:57;;;;;;;13.80;10.90;;;4.20;99.90;;;;;;2108949;28;20023;-71
2023/01/19 04:14:57;;;;;;;13.93;10.63;;;4.10;99.90;;;;;;2110703;28;20011;-71
2023/01/19 04:16:00;;;;;;;14.15;10.48;;;4.10;99.90;;;;;;2110871;28;20494;-71
2023/01/19 04:17:00;;;;;;;15.85;10.82;;;4.20;99.90;;;;;;2108152;28;20419;-71
2023/01/19 04:18:01;;;;;;;20.05;11.32;;;4.10;99.90;;;;;;2109127;28;20019;-71
2023/01/19 04:19:01;;;;;;;13.07;11.18;;;4.10;99.90;;;;;;2108183;28;20047;-71
2023/01/19 04:20:02;;;;;;;15.52;10.32;;;4.10;99.90;;;;;;2107589;28;20129;-71
2023/01/19 04:21:05;;;;;;;13.95;10.10;;;4.10;99.90;;;;;;2107866;28;20028;-71
2023/01/19 04:22:06;;;;;;;13.13;10.82;;;4.10;99.90;;;;;;2107699;28;20050;-71
2023/01/19 04:23:06;;;;;;;17.15;10.68;;;4.10;99.90;;;;;;2109265;28;20103;-71
2023/01/19 04:24:09;;;;;;;15.43;10.65;;;4.10;99.90;;;;;;2109327;28;20152;-71
2023/01/19 04:25:09;;;;;;;12.70;10.02;;;4.10;99.90;;;;;;2110386;28;20056;-71
2023/01/19 04:26:10;;;;;;;15.70;10.82;;;4.10;99.90;;;;;;2109086;28;20028;-71
2023/01/19 04:27:10;;;;;;;13.20;10.30;;;4.20;99.90;;;;;;2107976;28;20027;-71
2023/01/19 04:28:11;;;;;;;14.23;11.30;;;4.10;99.90;;;;;;2108123;28;20402;-71
2023/01/19 04:29:13;;;;;;;12.35;9.68;;;4.10;99.90;;;;;;2108861;28;20035;-71
2023/01/19 04:30:13;;;;;;;13.38;10.80;;;4.10;99.90;;;;;;2108494;28;20122;-71
2023/01/19 04:31:14;;;;;;;13.32;10.90;;;4.10;99.90;;;;;;2108703;28;20032;-71
2023/01/19 04:32:15;;;;;;;14.77;10.18;;;4.20;99.90;;;;;;2109462;28;20044;-71
2023/01/19 04:33:15;;;;;;;13.13;10.43;;;4.10;99.90;;;;;;2109070;28;20043;-71
2023/01/19 04:34:16;;;;;;;12.63;11.02;;;4.10;99.90;;;;;;2109203;28;20608;-71
2023/01/19 04:35:17;;;;;;;13.23;11.27;;;4.10;99.90;;;;;;2109336;28;20395;-71
2023/01/19 04:36:18;;;;;;;11.75;9.98;;;4.10;99.90;;;;;;2107601;28;20721;-71
2023/01/19 04:37:18;;;;;;;15.07;11.02;;;4.10;99.90;;;;;;2107887;28;20088;-71
2023/01/19 04:38:19;;;;;;;18.38;11.38;;;4.10;99.90;;;;;;2108864;28;20092;-71
2023/01/19 04:39:20;;;;;;;13.15;11.77;;;4.10;99.90;;;;;;2107944;28;20397;-71
2023/01/19 04:40:20;;;;;;;18.27;11.15;;;4.10;99.90;;;;;;2105425;28;20082;-71
2023/01/19 04:41:21;;;;;;;20.25;11.70;;;4.10;99.90;;;;;;2108981;28;20028;-71
2023/01/19 04:42:21;;;;;;;12.98;11.65;;;4.10;99.90;;;;;;2108419;28;20028;-72
2023/01/19 04:43:23;;;;;;;19.05;11.80;;;4.00;99.90;;;;;;2107278;28;20173;-71
2023/01/19 04:44:23;;;;;;;16.77;12.40;;;4.10;99.90;;;;;;2108901;28;20023;-71
2023/01/19 04:45:24;;;;;;;15.82;11.60;;;4.00;99.90;;;;;;2106928;28;20088;-71
2023/01/19 04:46:24;;;;;;;12.57;10.63;;;4.00;99.90;;;;;;2107241;28;20085;-71
2023/01/19 04:47:25;;;;;;;12.63;11.20;;;4.00;99.90;;;;;;2107526;28;20491;-72
2023/01/19 04:48:25;;;;;;;13.70;11.35;;;3.90;99.90;;;;;;2106558;28;20106;-71
2023/01/19 04:49:26;;;;;;;13.95;11.52;;;3.90;99.90;;;;;;2108422;28;20040;-71
2023/01/19 04:50:26;;;;;;;14.40;12.80;;;3.90;99.90;;;;;;2108487;28;20505;-72
2023/01/19 04:51:27;;;;;;;14.25;11.85;;;3.90;99.90;;;;;;2108668;28;20553;-71
2023/01/19 04:52:35;;;;;;;13.63;11.98;;;3.80;99.90;;;;;;2107932;28;20478;-72
2023/01/19 04:53:36;;;;;;;13.98;11.45;;;3.80;99.90;;;;;;2108111;28;20051;-71
2023/01/19 04:54:36;;;;;;;13.73;10.60;;;3.80;99.90;;;;;;2107976;28;20525;-72
2023/01/19 04:55:37;;;;;;;15.40;12.35;;;3.80;99.90;;;;;;2108833;28;20498;-72
2023/01/19 04:56:39;;;;;;;13.75;12.07;;;3.80;99.90;;;;;;2109806;28;20592;-72
2023/01/19 04:57:40;;;;;;;13.73;11.48;;;3.80;99.90;;;;;;2110185;28;20023;-72
2023/01/19 04:58:41;;;;;;;12.20;10.80;;;3.80;99.90;;;;;;2109582;28;20024;-71
2023/01/19 04:59:41;;;;;;;12.98;11.15;;;3.80;99.90;;;;;;2106068;28;20154;-71
2023/01/19 05:00:42;;;;;;;14.20;11.50;;;3.70;99.90;;;;;;2109965;28;20783;-71
2023/01/19 05:01:43;;;;;;;12.25;10.85;;;3.70;99.90;;;;;;2109533;28;20477;-71
2023/01/19 05:02:44;;;;;;;12.05;10.75;;;3.70;99.90;;;;;;2109254;28;20027;-71
2023/01/19 05:03:44;;;;;;;16.05;11.57;;;3.70;99.90;;;;;;2110089;28;20024;-71
2023/01/19 05:04:45;;;;;;;13.20;10.75;;;3.70;99.90;;;;;;2108352;28;20060;-72
2023/01/19 05:05:45;;;;;;;12.35;10.80;;;3.70;99.90;;;;;;2110704;28;20117;-72
2023/01/19 05:06:46;;;;;;;13.25;11.70;;;3.70;99.90;;;;;;2110061;28;20027;-72
2023/01/19 05:07:47;;;;;;;12.30;10.75;;;3.70;99.90;;;;;;2107220;28;20036;-72
2023/01/19 05:08:47;;;;;;;14.52;11.55;;;3.70;99.90;;;;;;2108780;28;20046;-72
2023/01/19 05:09:48;;;;;;;12.25;10.93;;;3.70;99.90;;;;;;2104130;28;20089;-72
2023/01/19 05:10:49;;;;;;;12.35;11.15;;;3.70;99.90;;;;;;2106638;28;20048;-72
2023/01/19 05:11:49;;;;;;;12.05;10.77;;;3.70;99.90;;;;;;2106491;28;20055;-72
2023/01/19 05:12:50;;;;;;;14.55;10.77;;;3.70;99.90;;;;;;2107963;28;20020;-72
2023/01/19 05:13:50;;;;;;;11.43;10.32;;;3.70;99.90;;;;;;2109264;28;20032;-72
2023/01/19 05:14:51;;;;;;;12.70;10.73;;;3.60;99.90;;;;;;2107493;28;20032;-72
2023/01/19 05:15:52;;;;;;;12.63;11.32;;;3.70;99.90;;;;;;2107120;28;20476;-72
2023/01/19 05:16:52;;;;;;;13.55;10.50;;;3.60;99.90;;;;;;2109263;28;20898;-72
2023/01/19 05:17:53;;;;;;;14.85;11.23;;;3.60;99.90;;;;;;2111699;28;20428;-72
2023/01/19 05:18:53;;;;;;;12.57;11.27;;;3.60;99.90;;;;;;2111182;28;20015;-72
2023/01/19 05:19:54;;;;;;;11.85;10.65;;;3.60;99.90;;;;;;2107666;28;20505;-72
2023/01/19 05:20:54;;;;;;;12.52;10.55;;;3.60;99.90;;;;;;2110941;28;20020;-72
2023/01/19 05:21:55;;;;;;;12.27;9.80;;;3.60;99.90;;;;;;2102404;28;20115;-72
2023/01/19 05:22:55;;;;;;;13.55;10.85;;;3.60;99.90;;;;;;2107709;28;20063;-72
2023/01/19 05:23:56;;;;;;;12.43;10.77;;;3.60;99.90;;;;;;2110170;28;20034;-72
2023/01/19 05:24:57;;;;;;;11.93;10.73;;;3.60;99.90;;;;;;2111813;28;20080;-72
2023/01/19 05:26:01;;;;;;;12.38;10.27;;;3.60;99.90;;;;;;2110000;28;20028;-72
2023/01/19 05:27:02;;;;;;;13.45;11.40;;;3.60;99.90;;;;;;2108456;28;20565;-72
2023/01/19 05:28:03;;;;;;;12.90;11.43;;;3.50;99.90;;;;;;2110353;28;20031;-72
2023/01/19 05:29:03;;;;;;;12.32;10.70;;;3.60;99.90;;;;;;2110294;28;20027;-72
2023/01/19 05:30:05;;;;;;;12.07;10.85;;;3.50;99.90;;;;;;2108843;28;20028;-72
2023/01/19 05:31:06;;;;;;;13.50;11.20;;;3.50;99.90;;;;;;2108142;28;20036;-72
2023/01/19 05:32:06;;;;;;;15.70;11.13;;;3.50;99.90;;;;;;2107651;28;20126;-72
2023/01/19 05:33:07;;;;;;;13.52;11.38;;;3.50;99.90;;;;;;2109427;28;20015;-72
2023/01/19 05:34:10;;;;;;;13.10;11.02;;;3.50;99.90;;;;;;2108491;27;20032;-72
2023/01/19 05:35:12;;;;;;;11.52;10.32;;;3.50;99.90;;;;;;2109312;28;20031;-72
2023/01/19 05:36:12;;;;;;;12.05;10.93;;;3.50;99.90;;;;;;2108629;28;20110;-72